sensor_id;sensor_type;location;lat;lon;timestamp;temperature;humidity
17815;DHT22;9031;50.974;11.330;2023-04-25T00:01:14;7.70;96.00
17815;DHT22;9031;50.974;11.330;2023-04-25T00:03:40;7.70;96.10
17815;DHT22;9031;50.974;11.330;2023-04-25T00:06:06;7.70;96.20
17815;DHT22;9031;50.974;11.330;2023-04-25T00:08:32;7.70;96.10
17815;DHT22;9031;50.974;11.330;2023-04-25T00:10:57;7.60;96.10
17815;DHT22;9031;50.974;11.330;2023-04-25T00:13:23;7.70;95.90
17815;DHT22;9031;50.974;11.330;2023-04-25T00:15:51;7.60;95.90
17815;DHT22;9031;50.974;11.330;2023-04-25T00:18:16;7.60;95.80
17815;DHT22;9031;50.974;11.330;2023-04-25T00:20:43;7.60;95.90
17815;DHT22;9031;50.974;11.330;2023-04-25T00:23:17;7.70;95.70
17815;DHT22;9031;50.974;11.330;2023-04-25T00:25:48;7.60;95.80
17815;DHT22;9031;50.974;11.330;2023-04-25T00:28:14;7.50;95.90
17815;DHT22;9031;50.974;11.330;2023-04-25T00:30:41;7.50;95.90
17815;DHT22;9031;50.974;11.330;2023-04-25T00:33:07;7.50;95.90
17815;DHT22;9031;50.974;11.330;2023-04-25T00:35:32;7.50;95.90
17815;DHT22;9031;50.974;11.330;2023-04-25T00:37:58;7.50;96.00
17815;DHT22;9031;50.974;11.330;2023-04-25T00:40:24;7.40;95.90
17815;DHT22;9031;50.974;11.330;2023-04-25T00:42:51;7.40;96.00
17815;DHT22;9031;50.974;11.330;2023-04-25T00:45:17;7.40;96.00
17815;DHT22;9031;50.974;11.330;2023-04-25T00:47:43;7.50;95.90
17815;DHT22;9031;50.974;11.330;2023-04-25T00:50:09;7.50;96.00
17815;DHT22;9031;50.974;11.330;2023-04-25T00:52:39;7.40;96.20
17815;DHT22;9031;50.974;11.330;2023-04-25T00:55:06;7.40;96.40
17815;DHT22;9031;50.974;11.330;2023-04-25T00:57:32;7.40;96.50
17815;DHT22;9031;50.974;11.330;2023-04-25T00:59:58;7.40;96.40
17815;DHT22;9031;50.974;11.330;2023-04-25T01:02:24;7.40;96.30
17815;DHT22;9031;50.974;11.330;2023-04-25T01:04:51;7.40;96.50
17815;DHT22;9031;50.974;11.330;2023-04-25T01:07:16;7.50;96.40
17815;DHT22;9031;50.974;11.330;2023-04-25T01:09:42;7.50;96.40
17815;DHT22;9031;50.974;11.330;2023-04-25T01:12:08;7.50;96.50
17815;DHT22;9031;50.974;11.330;2023-04-25T01:14:33;7.50;96.60
17815;DHT22;9031;50.974;11.330;2023-04-25T01:16:59;7.50;96.80
17815;DHT22;9031;50.974;11.330;2023-04-25T01:19:25;7.40;96.60
17815;DHT22;9031;50.974;11.330;2023-04-25T01:21:51;7.30;97.00
17815;DHT22;9031;50.974;11.330;2023-04-25T01:24:17;7.30;97.00
17815;DHT22;9031;50.974;11.330;2023-04-25T01:26:43;7.30;96.90
17815;DHT22;9031;50.974;11.330;2023-04-25T01:29:18;7.30;97.00
17815;DHT22;9031;50.974;11.330;2023-04-25T01:31:44;7.20;97.10
17815;DHT22;9031;50.974;11.330;2023-04-25T01:34:10;7.20;97.30
17815;DHT22;9031;50.974;11.330;2023-04-25T01:36:36;7.20;97.30
17815;DHT22;9031;50.974;11.330;2023-04-25T01:39:02;7.20;97.20
17815;DHT22;9031;50.974;11.330;2023-04-25T01:41:27;7.30;96.80
17815;DHT22;9031;50.974;11.330;2023-04-25T01:43:53;7.20;97.00
17815;DHT22;9031;50.974;11.330;2023-04-25T01:46:19;7.20;97.10
17815;DHT22;9031;50.974;11.330;2023-04-25T01:48:45;7.00;97.60
17815;DHT22;9031;50.974;11.330;2023-04-25T01:51:11;7.00;97.60
17815;DHT22;9031;50.974;11.330;2023-04-25T01:53:37;7.00;97.80
17815;DHT22;9031;50.974;11.330;2023-04-25T01:56:03;7.00;97.80
17815;DHT22;9031;50.974;11.330;2023-04-25T01:58:28;7.00;97.80
17815;DHT22;9031;50.974;11.330;2023-04-25T02:00:54;7.00;97.80
17815;DHT22;9031;50.974;11.330;2023-04-25T02:03:19;6.90;98.00
17815;DHT22;9031;50.974;11.330;2023-04-25T02:05:45;6.90;98.00
17815;DHT22;9031;50.974;11.330;2023-04-25T02:08:10;6.90;98.00
17815;DHT22;9031;50.974;11.330;2023-04-25T02:10:36;6.90;97.90
17815;DHT22;9031;50.974;11.330;2023-04-25T02:13:03;7.00;97.80
17815;DHT22;9031;50.974;11.330;2023-04-25T02:15:29;7.00;97.90
17815;DHT22;9031;50.974;11.330;2023-04-25T02:17:55;6.90;98.20
17815;DHT22;9031;50.974;11.330;2023-04-25T02:20:22;6.80;98.10
17815;DHT22;9031;50.974;11.330;2023-04-25T02:22:48;6.80;98.10
17815;DHT22;9031;50.974;11.330;2023-04-25T02:25:14;6.80;98.30
17815;DHT22;9031;50.974;11.330;2023-04-25T02:27:41;6.70;98.30
17815;DHT22;9031;50.974;11.330;2023-04-25T02:30:07;6.70;98.40
17815;DHT22;9031;50.974;11.330;2023-04-25T02:32:33;6.70;98.60
17815;DHT22;9031;50.974;11.330;2023-04-25T02:34:59;6.70;98.50
17815;DHT22;9031;50.974;11.330;2023-04-25T02:37:29;6.50;98.70
17815;DHT22;9031;50.974;11.330;2023-04-25T02:39:55;6.40;99.10
17815;DHT22;9031;50.974;11.330;2023-04-25T02:42:20;6.40;99.00
17815;DHT22;9031;50.974;11.330;2023-04-25T02:44:46;6.50;99.00
17815;DHT22;9031;50.974;11.330;2023-04-25T02:47:11;6.40;99.20
17815;DHT22;9031;50.974;11.330;2023-04-25T02:49:37;6.40;99.00
17815;DHT22;9031;50.974;11.330;2023-04-25T02:52:02;6.40;99.30
17815;DHT22;9031;50.974;11.330;2023-04-25T02:54:28;6.30;99.50
17815;DHT22;9031;50.974;11.330;2023-04-25T02:56:53;6.30;99.50
17815;DHT22;9031;50.974;11.330;2023-04-25T02:59:18;6.50;98.90
17815;DHT22;9031;50.974;11.330;2023-04-25T03:01:44;6.60;98.90
17815;DHT22;9031;50.974;11.330;2023-04-25T03:04:10;6.60;98.70
17815;DHT22;9031;50.974;11.330;2023-04-25T03:06:36;6.80;98.00
17815;DHT22;9031;50.974;11.330;2023-04-25T03:09:01;6.80;97.90
17815;DHT22;9031;50.974;11.330;2023-04-25T03:11:27;6.90;97.90
17815;DHT22;9031;50.974;11.330;2023-04-25T03:13:52;6.80;98.10
17815;DHT22;9031;50.974;11.330;2023-04-25T03:16:18;6.70;98.20
17815;DHT22;9031;50.974;11.330;2023-04-25T03:18:43;6.70;98.40
17815;DHT22;9031;50.974;11.330;2023-04-25T03:21:09;6.50;98.90
17815;DHT22;9031;50.974;11.330;2023-04-25T03:23:34;6.60;98.60
17815;DHT22;9031;50.974;11.330;2023-04-25T03:26:00;6.60;98.50
17815;DHT22;9031;50.974;11.330;2023-04-25T03:28:25;6.60;98.30
17815;DHT22;9031;50.974;11.330;2023-04-25T03:31:16;6.60;98.60
17815;DHT22;9031;50.974;11.330;2023-04-25T03:33:41;6.60;98.50
17815;DHT22;9031;50.974;11.330;2023-04-25T03:36:07;6.50;98.60
17815;DHT22;9031;50.974;11.330;2023-04-25T03:38:33;6.50;98.80
17815;DHT22;9031;50.974;11.330;2023-04-25T03:40:58;6.40;98.70
17815;DHT22;9031;50.974;11.330;2023-04-25T03:43:24;6.40;98.60
17815;DHT22;9031;50.974;11.330;2023-04-25T03:45:49;6.40;98.80
17815;DHT22;9031;50.974;11.330;2023-04-25T03:48:15;6.30;98.90
17815;DHT22;9031;50.974;11.330;2023-04-25T03:50:41;6.20;99.10
17815;DHT22;9031;50.974;11.330;2023-04-25T03:53:06;6.10;99.20
17815;DHT22;9031;50.974;11.330;2023-04-25T03:55:32;6.10;99.20
17815;DHT22;9031;50.974;11.330;2023-04-25T03:57:58;6.10;99.30
17815;DHT22;9031;50.974;11.330;2023-04-25T04:00:24;6.10;99.50
17815;DHT22;9031;50.974;11.330;2023-04-25T04:02:50;6.10;99.30
17815;DHT22;9031;50.974;11.330;2023-04-25T04:05:15;6.10;99.30
17815;DHT22;9031;50.974;11.330;2023-04-25T04:07:41;6.10;99.40
17815;DHT22;9031;50.974;11.330;2023-04-25T04:10:09;6.10;99.30
17815;DHT22;9031;50.974;11.330;2023-04-25T04:12:34;6.10;99.30
17815;DHT22;9031;50.974;11.330;2023-04-25T04:15:01;5.90;99.50
17815;DHT22;9031;50.974;11.330;2023-04-25T04:17:29;5.60;99.90
17815;DHT22;9031;50.974;11.330;2023-04-25T04:19:54;5.60;99.90
17815;DHT22;9031;50.974;11.330;2023-04-25T04:22:20;5.70;99.90
17815;DHT22;9031;50.974;11.330;2023-04-25T04:24:45;5.80;99.90
17815;DHT22;9031;50.974;11.330;2023-04-25T04:27:11;5.90;99.90
17815;DHT22;9031;50.974;11.330;2023-04-25T04:29:38;6.00;99.70
17815;DHT22;9031;50.974;11.330;2023-04-25T04:32:03;6.10;99.50
17815;DHT22;9031;50.974;11.330;2023-04-25T04:34:30;6.10;99.20
17815;DHT22;9031;50.974;11.330;2023-04-25T04:36:56;6.10;99.20
17815;DHT22;9031;50.974;11.330;2023-04-25T04:39:22;6.00;99.20
17815;DHT22;9031;50.974;11.330;2023-04-25T04:41:48;6.00;99.30
17815;DHT22;9031;50.974;11.330;2023-04-25T04:44:14;6.00;99.40
17815;DHT22;9031;50.974;11.330;2023-04-25T04:46:40;6.00;99.30
17815;DHT22;9031;50.974;11.330;2023-04-25T04:49:08;6.10;99.40
17815;DHT22;9031;50.974;11.330;2023-04-25T04:51:34;6.10;99.00
17815;DHT22;9031;50.974;11.330;2023-04-25T04:54:00;6.20;99.00
17815;DHT22;9031;50.974;11.330;2023-04-25T04:56:28;6.20;98.90
17815;DHT22;9031;50.974;11.330;2023-04-25T04:58:54;6.30;98.60
17815;DHT22;9031;50.974;11.330;2023-04-25T05:01:20;6.40;98.40
17815;DHT22;9031;50.974;11.330;2023-04-25T05:03:45;6.40;98.40
17815;DHT22;9031;50.974;11.330;2023-04-25T05:06:11;6.50;98.40
17815;DHT22;9031;50.974;11.330;2023-04-25T05:08:36;6.60;98.10
17815;DHT22;9031;50.974;11.330;2023-04-25T05:11:02;6.70;98.10
17815;DHT22;9031;50.974;11.330;2023-04-25T05:13:28;6.80;97.90
17815;DHT22;9031;50.974;11.330;2023-04-25T05:15:53;6.90;97.70
17815;DHT22;9031;50.974;11.330;2023-04-25T05:18:19;6.90;97.60
17815;DHT22;9031;50.974;11.330;2023-04-25T05:20:44;6.90;97.30
17815;DHT22;9031;50.974;11.330;2023-04-25T05:23:10;6.80;97.20
17815;DHT22;9031;50.974;11.330;2023-04-25T05:25:36;6.80;97.30
17815;DHT22;9031;50.974;11.330;2023-04-25T05:28:01;6.90;97.20
17815;DHT22;9031;50.974;11.330;2023-04-25T05:30:26;7.00;97.30
17815;DHT22;9031;50.974;11.330;2023-04-25T05:32:52;7.10;97.20
17815;DHT22;9031;50.974;11.330;2023-04-25T05:35:17;7.20;97.50
17815;DHT22;9031;50.974;11.330;2023-04-25T05:37:43;7.10;97.00
17815;DHT22;9031;50.974;11.330;2023-04-25T05:40:09;7.10;96.90
17815;DHT22;9031;50.974;11.330;2023-04-25T05:42:34;7.20;97.00
17815;DHT22;9031;50.974;11.330;2023-04-25T05:45:00;7.30;96.10
17815;DHT22;9031;50.974;11.330;2023-04-25T05:47:26;7.20;96.60
17815;DHT22;9031;50.974;11.330;2023-04-25T05:49:51;7.40;96.30
17815;DHT22;9031;50.974;11.330;2023-04-25T05:52:17;7.50;95.90
17815;DHT22;9031;50.974;11.330;2023-04-25T05:54:42;7.60;95.80
17815;DHT22;9031;50.974;11.330;2023-04-25T05:57:08;7.70;95.40
17815;DHT22;9031;50.974;11.330;2023-04-25T05:59:33;7.90;95.00
17815;DHT22;9031;50.974;11.330;2023-04-25T06:01:59;7.80;95.20
17815;DHT22;9031;50.974;11.330;2023-04-25T06:04:26;7.90;95.00
17815;DHT22;9031;50.974;11.330;2023-04-25T06:06:51;7.90;94.90
17815;DHT22;9031;50.974;11.330;2023-04-25T06:09:16;8.10;94.30
17815;DHT22;9031;50.974;11.330;2023-04-25T06:11:42;8.00;94.40
17815;DHT22;9031;50.974;11.330;2023-04-25T06:14:07;8.10;93.90
17815;DHT22;9031;50.974;11.330;2023-04-25T06:16:33;8.10;93.80
17815;DHT22;9031;50.974;11.330;2023-04-25T06:18:58;8.00;94.40
17815;DHT22;9031;50.974;11.330;2023-04-25T06:21:24;7.80;94.50
17815;DHT22;9031;50.974;11.330;2023-04-25T06:23:49;7.80;94.70
17815;DHT22;9031;50.974;11.330;2023-04-25T06:26:15;7.70;94.90
17815;DHT22;9031;50.974;11.330;2023-04-25T06:28:40;7.60;94.90
17815;DHT22;9031;50.974;11.330;2023-04-25T06:31:06;7.50;95.10
17815;DHT22;9031;50.974;11.330;2023-04-25T06:33:31;7.40;95.50
17815;DHT22;9031;50.974;11.330;2023-04-25T06:35:57;7.60;95.30
17815;DHT22;9031;50.974;11.330;2023-04-25T06:38:22;7.60;95.30
17815;DHT22;9031;50.974;11.330;2023-04-25T06:40:48;7.70;95.40
17815;DHT22;9031;50.974;11.330;2023-04-25T06:43:13;7.80;95.00
17815;DHT22;9031;50.974;11.330;2023-04-25T06:45:39;7.90;95.10
17815;DHT22;9031;50.974;11.330;2023-04-25T06:48:04;8.00;94.50
17815;DHT22;9031;50.974;11.330;2023-04-25T06:50:30;7.90;94.40
17815;DHT22;9031;50.974;11.330;2023-04-25T06:52:56;7.80;94.80
17815;DHT22;9031;50.974;11.330;2023-04-25T06:55:21;8.00;94.80
17815;DHT22;9031;50.974;11.330;2023-04-25T06:57:46;8.10;94.40
17815;DHT22;9031;50.974;11.330;2023-04-25T07:00:12;8.00;94.70
17815;DHT22;9031;50.974;11.330;2023-04-25T07:02:38;8.10;94.80
17815;DHT22;9031;50.974;11.330;2023-04-25T07:05:04;8.30;94.40
17815;DHT22;9031;50.974;11.330;2023-04-25T07:07:30;8.50;94.00
17815;DHT22;9031;50.974;11.330;2023-04-25T07:09:56;8.40;93.90
17815;DHT22;9031;50.974;11.330;2023-04-25T07:12:21;8.50;94.20
17815;DHT22;9031;50.974;11.330;2023-04-25T07:14:47;8.60;93.80
17815;DHT22;9031;50.974;11.330;2023-04-25T07:17:12;8.40;94.10
17815;DHT22;9031;50.974;11.330;2023-04-25T07:19:38;8.10;95.00
17815;DHT22;9031;50.974;11.330;2023-04-25T07:22:05;8.00;95.40
17815;DHT22;9031;50.974;11.330;2023-04-25T07:24:31;8.00;95.60
17815;DHT22;9031;50.974;11.330;2023-04-25T07:26:56;8.00;95.50
17815;DHT22;9031;50.974;11.330;2023-04-25T07:29:23;8.10;94.60
17815;DHT22;9031;50.974;11.330;2023-04-25T07:31:48;8.20;94.50
17815;DHT22;9031;50.974;11.330;2023-04-25T07:34:14;8.30;94.10
17815;DHT22;9031;50.974;11.330;2023-04-25T07:36:40;8.40;94.10
17815;DHT22;9031;50.974;11.330;2023-04-25T07:39:06;8.70;93.90
17815;DHT22;9031;50.974;11.330;2023-04-25T07:41:32;9.00;93.10
17815;DHT22;9031;50.974;11.330;2023-04-25T07:43:57;9.40;92.90
17815;DHT22;9031;50.974;11.330;2023-04-25T07:46:24;9.40;92.20
17815;DHT22;9031;50.974;11.330;2023-04-25T07:48:49;9.10;92.60
17815;DHT22;9031;50.974;11.330;2023-04-25T07:51:15;8.90;93.30
17815;DHT22;9031;50.974;11.330;2023-04-25T07:53:40;9.00;93.20
17815;DHT22;9031;50.974;11.330;2023-04-25T07:56:06;9.00;93.40
17815;DHT22;9031;50.974;11.330;2023-04-25T07:58:31;9.00;93.10
17815;DHT22;9031;50.974;11.330;2023-04-25T08:00:57;8.90;93.40
17815;DHT22;9031;50.974;11.330;2023-04-25T08:03:22;8.70;93.90
17815;DHT22;9031;50.974;11.330;2023-04-25T08:05:48;8.50;93.90
17815;DHT22;9031;50.974;11.330;2023-04-25T08:08:13;8.40;94.30
17815;DHT22;9031;50.974;11.330;2023-04-25T08:10:39;8.40;94.20
17815;DHT22;9031;50.974;11.330;2023-04-25T08:13:04;8.50;94.10
17815;DHT22;9031;50.974;11.330;2023-04-25T08:15:30;8.70;93.90
17815;DHT22;9031;50.974;11.330;2023-04-25T08:17:55;8.80;93.70
17815;DHT22;9031;50.974;11.330;2023-04-25T08:20:21;9.10;93.50
17815;DHT22;9031;50.974;11.330;2023-04-25T08:22:46;9.40;93.00
17815;DHT22;9031;50.974;11.330;2023-04-25T08:25:14;9.60;92.10
17815;DHT22;9031;50.974;11.330;2023-04-25T08:27:39;9.50;92.20
17815;DHT22;9031;50.974;11.330;2023-04-25T08:30:05;9.60;92.40
17815;DHT22;9031;50.974;11.330;2023-04-25T08:32:31;9.60;92.20
17815;DHT22;9031;50.974;11.330;2023-04-25T08:34:56;9.60;92.40
17815;DHT22;9031;50.974;11.330;2023-04-25T08:37:22;9.20;93.20
17815;DHT22;9031;50.974;11.330;2023-04-25T08:39:47;9.00;93.90
17815;DHT22;9031;50.974;11.330;2023-04-25T08:42:19;8.80;94.40
17815;DHT22;9031;50.974;11.330;2023-04-25T08:44:45;8.80;94.70
17815;DHT22;9031;50.974;11.330;2023-04-25T08:47:13;8.70;94.60
17815;DHT22;9031;50.974;11.330;2023-04-25T08:49:39;8.50;95.00
17815;DHT22;9031;50.974;11.330;2023-04-25T08:52:10;8.30;95.90
17815;DHT22;9031;50.974;11.330;2023-04-25T08:54:37;8.30;96.20
17815;DHT22;9031;50.974;11.330;2023-04-25T08:57:06;8.30;95.90
17815;DHT22;9031;50.974;11.330;2023-04-25T08:59:32;8.10;96.20
17815;DHT22;9031;50.974;11.330;2023-04-25T09:01:58;8.10;96.90
17815;DHT22;9031;50.974;11.330;2023-04-25T09:04:23;8.10;97.00
17815;DHT22;9031;50.974;11.330;2023-04-25T09:06:49;8.30;97.00
17815;DHT22;9031;50.974;11.330;2023-04-25T09:09:14;8.40;96.40
17815;DHT22;9031;50.974;11.330;2023-04-25T09:11:40;8.50;96.50
17815;DHT22;9031;50.974;11.330;2023-04-25T09:14:17;8.60;96.50
17815;DHT22;9031;50.974;11.330;2023-04-25T09:17:01;8.60;95.60
17815;DHT22;9031;50.974;11.330;2023-04-25T09:19:35;8.30;95.90
17815;DHT22;9031;50.974;11.330;2023-04-25T09:22:03;8.10;96.40
17815;DHT22;9031;50.974;11.330;2023-04-25T09:24:36;8.10;96.60
17815;DHT22;9031;50.974;11.330;2023-04-25T09:27:10;8.10;97.00
17815;DHT22;9031;50.974;11.330;2023-04-25T09:29:39;8.10;96.80
17815;DHT22;9031;50.974;11.330;2023-04-25T09:32:16;8.10;97.10
17815;DHT22;9031;50.974;11.330;2023-04-25T09:34:43;8.20;96.50
17815;DHT22;9031;50.974;11.330;2023-04-25T09:37:10;7.90;97.00
17815;DHT22;9031;50.974;11.330;2023-04-25T09:39:36;7.80;97.80
17815;DHT22;9031;50.974;11.330;2023-04-25T09:42:03;7.60;99.10
17815;DHT22;9031;50.974;11.330;2023-04-25T09:44:29;7.40;99.40
17815;DHT22;9031;50.974;11.330;2023-04-25T09:46:55;7.20;99.90
17815;DHT22;9031;50.974;11.330;2023-04-25T09:49:20;7.20;99.90
17815;DHT22;9031;50.974;11.330;2023-04-25T09:51:56;7.20;99.90
17815;DHT22;9031;50.974;11.330;2023-04-25T09:54:23;7.30;98.90
17815;DHT22;9031;50.974;11.330;2023-04-25T09:56:51;7.20;98.50
17815;DHT22;9031;50.974;11.330;2023-04-25T09:59:20;7.20;98.60
17815;DHT22;9031;50.974;11.330;2023-04-25T10:01:48;7.20;98.80
17815;DHT22;9031;50.974;11.330;2023-04-25T10:04:20;7.30;99.00
17815;DHT22;9031;50.974;11.330;2023-04-25T10:06:49;7.60;98.80
17815;DHT22;9031;50.974;11.330;2023-04-25T10:09:16;7.90;98.00
17815;DHT22;9031;50.974;11.330;2023-04-25T10:11:44;8.00;97.50
17815;DHT22;9031;50.974;11.330;2023-04-25T10:14:13;8.10;96.60
17815;DHT22;9031;50.974;11.330;2023-04-25T10:16:40;8.20;96.70
17815;DHT22;9031;50.974;11.330;2023-04-25T10:19:07;8.70;96.10
17815;DHT22;9031;50.974;11.330;2023-04-25T10:21:33;8.90;94.90
17815;DHT22;9031;50.974;11.330;2023-04-25T10:24:00;9.40;95.10
17815;DHT22;9031;50.974;11.330;2023-04-25T10:26:26;9.90;94.00
17815;DHT22;9031;50.974;11.330;2023-04-25T10:29:02;9.80;92.90
17815;DHT22;9031;50.974;11.330;2023-04-25T10:31:30;9.40;93.90
17815;DHT22;9031;50.974;11.330;2023-04-25T10:33:56;9.50;92.00
17815;DHT22;9031;50.974;11.330;2023-04-25T10:36:22;9.60;91.00
17815;DHT22;9031;50.974;11.330;2023-04-25T10:38:49;9.70;90.80
17815;DHT22;9031;50.974;11.330;2023-04-25T10:41:19;9.80;91.00
17815;DHT22;9031;50.974;11.330;2023-04-25T10:43:46;9.80;90.90
17815;DHT22;9031;50.974;11.330;2023-04-25T10:46:25;9.60;91.00
17815;DHT22;9031;50.974;11.330;2023-04-25T10:48:59;9.20;91.70
17815;DHT22;9031;50.974;11.330;2023-04-25T10:51:27;9.10;92.00
17815;DHT22;9031;50.974;11.330;2023-04-25T10:54:05;8.90;92.40
17815;DHT22;9031;50.974;11.330;2023-04-25T10:56:40;8.50;92.90
17815;DHT22;9031;50.974;11.330;2023-04-25T10:59:16;8.50;92.90
17815;DHT22;9031;50.974;11.330;2023-04-25T11:01:48;8.70;92.20
17815;DHT22;9031;50.974;11.330;2023-04-25T11:04:29;8.60;91.30
17815;DHT22;9031;50.974;11.330;2023-04-25T11:09:30;8.60;91.10
17815;DHT22;9031;50.974;11.330;2023-04-25T11:11:58;8.30;91.00
17815;DHT22;9031;50.974;11.330;2023-04-25T11:14:24;8.20;91.20
17815;DHT22;9031;50.974;11.330;2023-04-25T11:16:54;8.40;90.70
17815;DHT22;9031;50.974;11.330;2023-04-25T11:19:21;8.50;90.80
17815;DHT22;9031;50.974;11.330;2023-04-25T11:21:46;8.80;90.60
17815;DHT22;9031;50.974;11.330;2023-04-25T11:24:12;9.20;90.30
17815;DHT22;9031;50.974;11.330;2023-04-25T11:26:37;9.60;88.20
17815;DHT22;9031;50.974;11.330;2023-04-25T11:29:03;9.60;87.90
17815;DHT22;9031;50.974;11.330;2023-04-25T11:31:29;9.60;87.30
17815;DHT22;9031;50.974;11.330;2023-04-25T11:33:57;9.80;87.30
17815;DHT22;9031;50.974;11.330;2023-04-25T11:36:23;10.10;85.80
17815;DHT22;9031;50.974;11.330;2023-04-25T11:38:50;10.80;83.60
17815;DHT22;9031;50.974;11.330;2023-04-25T11:41:16;11.40;81.20
17815;DHT22;9031;50.974;11.330;2023-04-25T11:43:43;11.50;81.50
17815;DHT22;9031;50.974;11.330;2023-04-25T11:46:08;12.70;77.50
17815;DHT22;9031;50.974;11.330;2023-04-25T11:48:41;13.80;72.40
17815;DHT22;9031;50.974;11.330;2023-04-25T11:51:07;15.80;65.60
17815;DHT22;9031;50.974;11.330;2023-04-25T11:53:33;17.30;58.90
17815;DHT22;9031;50.974;11.330;2023-04-25T11:55:59;17.60;57.30
17815;DHT22;9031;50.974;11.330;2023-04-25T11:58:26;18.20;55.60
17815;DHT22;9031;50.974;11.330;2023-04-25T12:00:52;19.50;50.70
17815;DHT22;9031;50.974;11.330;2023-04-25T12:03:18;19.70;49.00
17815;DHT22;9031;50.974;11.330;2023-04-25T12:05:45;19.50;49.50
17815;DHT22;9031;50.974;11.330;2023-04-25T12:08:12;20.10;48.70
17815;DHT22;9031;50.974;11.330;2023-04-25T12:10:39;19.50;47.50
17815;DHT22;9031;50.974;11.330;2023-04-25T12:13:25;16.10;56.40
17815;DHT22;9031;50.974;11.330;2023-04-25T12:15:53;13.30;65.70
17815;DHT22;9031;50.974;11.330;2023-04-25T12:18:20;12.50;73.20
17815;DHT22;9031;50.974;11.330;2023-04-25T12:20:46;12.90;71.50
17815;DHT22;9031;50.974;11.330;2023-04-25T12:23:12;12.10;74.10
17815;DHT22;9031;50.974;11.330;2023-04-25T12:25:40;11.70;77.10
17815;DHT22;9031;50.974;11.330;2023-04-25T12:30:55;11.00;81.00
17815;DHT22;9031;50.974;11.330;2023-04-25T12:33:22;11.10;81.70
17815;DHT22;9031;50.974;11.330;2023-04-25T12:35:47;11.60;78.50
17815;DHT22;9031;50.974;11.330;2023-04-25T12:38:23;12.70;75.70
17815;DHT22;9031;50.974;11.330;2023-04-25T12:40:49;15.10;63.60
17815;DHT22;9031;50.974;11.330;2023-04-25T12:43:14;18.10;54.80
17815;DHT22;9031;50.974;11.330;2023-04-25T12:45:40;19.20;46.40
17815;DHT22;9031;50.974;11.330;2023-04-25T12:48:06;16.20;52.80
17815;DHT22;9031;50.974;11.330;2023-04-25T12:50:31;13.20;60.10
17815;DHT22;9031;50.974;11.330;2023-04-25T12:52:57;12.10;64.80
17815;DHT22;9031;50.974;11.330;2023-04-25T12:55:22;11.50;68.40
17815;DHT22;9031;50.974;11.330;2023-04-25T12:57:48;11.40;70.10
17815;DHT22;9031;50.974;11.330;2023-04-25T13:00:14;11.10;70.80
17815;DHT22;9031;50.974;11.330;2023-04-25T13:02:40;11.10;70.70
17815;DHT22;9031;50.974;11.330;2023-04-25T13:05:06;11.90;67.10
17815;DHT22;9031;50.974;11.330;2023-04-25T13:07:31;12.20;64.20
17815;DHT22;9031;50.974;11.330;2023-04-25T13:09:57;12.00;62.30
17815;DHT22;9031;50.974;11.330;2023-04-25T13:12:22;12.70;61.80
17815;DHT22;9031;50.974;11.330;2023-04-25T13:14:48;14.10;56.90
17815;DHT22;9031;50.974;11.330;2023-04-25T13:17:13;13.50;56.30
17815;DHT22;9031;50.974;11.330;2023-04-25T13:19:39;14.10;54.60
17815;DHT22;9031;50.974;11.330;2023-04-25T13:22:04;13.80;51.20
17815;DHT22;9031;50.974;11.330;2023-04-25T13:24:30;13.30;53.60
17815;DHT22;9031;50.974;11.330;2023-04-25T13:26:55;14.40;50.90
17815;DHT22;9031;50.974;11.330;2023-04-25T13:29:21;13.40;52.90
17815;DHT22;9031;50.974;11.330;2023-04-25T13:31:46;12.50;55.70
17815;DHT22;9031;50.974;11.330;2023-04-25T13:34:12;12.10;58.60
17815;DHT22;9031;50.974;11.330;2023-04-25T13:36:37;12.40;57.90
17815;DHT22;9031;50.974;11.330;2023-04-25T13:39:03;12.30;56.50
17815;DHT22;9031;50.974;11.330;2023-04-25T13:41:30;11.70;58.40
17815;DHT22;9031;50.974;11.330;2023-04-25T13:43:55;11.40;60.20
17815;DHT22;9031;50.974;11.330;2023-04-25T13:46:21;11.20;60.30
17815;DHT22;9031;50.974;11.330;2023-04-25T13:48:46;11.50;58.80
17815;DHT22;9031;50.974;11.330;2023-04-25T13:51:15;11.70;58.40
17815;DHT22;9031;50.974;11.330;2023-04-25T13:53:41;12.10;56.60
17815;DHT22;9031;50.974;11.330;2023-04-25T13:56:06;12.30;54.90
17815;DHT22;9031;50.974;11.330;2023-04-25T13:58:32;12.00;55.10
17815;DHT22;9031;50.974;11.330;2023-04-25T14:00:58;12.10;55.00
17815;DHT22;9031;50.974;11.330;2023-04-25T14:03:23;12.00;56.00
17815;DHT22;9031;50.974;11.330;2023-04-25T14:05:49;11.80;57.90
17815;DHT22;9031;50.974;11.330;2023-04-25T14:08:14;11.90;56.40
17815;DHT22;9031;50.974;11.330;2023-04-25T14:10:40;11.60;57.60
17815;DHT22;9031;50.974;11.330;2023-04-25T14:13:06;12.20;56.40
17815;DHT22;9031;50.974;11.330;2023-04-25T14:15:32;12.60;54.30
17815;DHT22;9031;50.974;11.330;2023-04-25T14:17:58;12.00;54.50
17815;DHT22;9031;50.974;11.330;2023-04-25T14:20:24;12.40;54.50
17815;DHT22;9031;50.974;11.330;2023-04-25T14:22:49;12.50;54.40
17815;DHT22;9031;50.974;11.330;2023-04-25T14:25:15;12.30;54.70
17815;DHT22;9031;50.974;11.330;2023-04-25T14:27:40;12.40;55.00
17815;DHT22;9031;50.974;11.330;2023-04-25T14:30:06;13.30;52.90
17815;DHT22;9031;50.974;11.330;2023-04-25T14:32:34;14.20;51.50
17815;DHT22;9031;50.974;11.330;2023-04-25T14:34:59;14.00;49.60
17815;DHT22;9031;50.974;11.330;2023-04-25T14:37:25;13.80;48.40
17815;DHT22;9031;50.974;11.330;2023-04-25T14:39:51;13.60;47.90
17815;DHT22;9031;50.974;11.330;2023-04-25T14:42:16;14.30;47.60
17815;DHT22;9031;50.974;11.330;2023-04-25T14:44:42;15.60;44.80
17815;DHT22;9031;50.974;11.330;2023-04-25T14:47:07;14.10;46.80
17815;DHT22;9031;50.974;11.330;2023-04-25T14:49:32;13.00;50.80
17815;DHT22;9031;50.974;11.330;2023-04-25T14:51:58;12.60;52.20
17815;DHT22;9031;50.974;11.330;2023-04-25T14:54:24;12.10;54.00
17815;DHT22;9031;50.974;11.330;2023-04-25T14:56:49;11.60;55.80
17815;DHT22;9031;50.974;11.330;2023-04-25T14:59:15;11.60;56.30
17815;DHT22;9031;50.974;11.330;2023-04-25T15:01:41;11.30;57.50
17815;DHT22;9031;50.974;11.330;2023-04-25T15:04:06;11.50;58.60
17815;DHT22;9031;50.974;11.330;2023-04-25T15:06:32;11.50;58.20
17815;DHT22;9031;50.974;11.330;2023-04-25T15:08:58;11.40;57.00
17815;DHT22;9031;50.974;11.330;2023-04-25T15:11:24;11.50;58.00
17815;DHT22;9031;50.974;11.330;2023-04-25T15:13:49;11.10;59.10
17815;DHT22;9031;50.974;11.330;2023-04-25T15:16:15;11.00;59.10
17815;DHT22;9031;50.974;11.330;2023-04-25T15:18:40;10.70;59.60
17815;DHT22;9031;50.974;11.330;2023-04-25T15:21:06;10.50;61.30
17815;DHT22;9031;50.974;11.330;2023-04-25T15:23:32;10.60;61.00
17815;DHT22;9031;50.974;11.330;2023-04-25T15:25:58;10.60;61.00
17815;DHT22;9031;50.974;11.330;2023-04-25T15:28:23;10.70;60.00
17815;DHT22;9031;50.974;11.330;2023-04-25T15:30:49;10.60;60.30
17815;DHT22;9031;50.974;11.330;2023-04-25T15:33:14;10.20;62.40
17815;DHT22;9031;50.974;11.330;2023-04-25T15:35:40;10.20;62.90
17815;DHT22;9031;50.974;11.330;2023-04-25T15:38:06;10.50;63.00
17815;DHT22;9031;50.974;11.330;2023-04-25T15:40:31;12.90;58.30
17815;DHT22;9031;50.974;11.330;2023-04-25T15:42:57;15.40;50.10